sensor_id;sensor_type;location;lat;lon;timestamp;pressure;altitude;pressure_sealevel;temperature;humidity
59859;BME280;45734;53.648;9.566;2022-07-04T00:01:33;101777.66;;;14.02;100.00
59859;BME280;45734;53.648;9.566;2022-07-04T00:06:34;101774.47;;;13.98;100.00
59859;BME280;45734;53.648;9.566;2022-07-04T00:11:34;101767.78;;;13.94;100.00
59859;BME280;45734;53.648;9.566;2022-07-04T00:16:34;101766.09;;;13.93;100.00
59859;BME280;45734;53.648;9.566;2022-07-04T00:21:35;101762.88;;;13.90;100.00
59859;BME280;45734;53.648;9.566;2022-07-04T00:26:35;101749.97;;;13.85;100.00
59859;BME280;45734;53.648;9.566;2022-07-04T00:31:35;101745.78;;;13.82;100.00
59859;BME280;45734;53.648;9.566;2022-07-04T00:36:36;101736.53;;;13.77;100.00
59859;BME280;45734;53.648;9.566;2022-07-04T00:41:36;101735.16;;;13.73;100.00
59859;BME280;45734;53.648;9.566;2022-07-04T00:46:36;101744.81;;;13.66;100.00
59859;BME280;45734;53.648;9.566;2022-07-04T00:51:38;101745.13;;;13.63;100.00
59859;BME280;45734;53.648;9.566;2022-07-04T00:56:40;101753.31;;;13.61;100.00
59859;BME280;45734;53.648;9.566;2022-07-04T01:01:41;101750.81;;;13.59;100.00
59859;BME280;45734;53.648;9.566;2022-07-04T01:06:42;101760.13;;;13.55;100.00
59859;BME280;45734;53.648;9.566;2022-07-04T01:11:43;101753.09;;;13.54;100.00
59859;BME280;45734;53.648;9.566;2022-07-04T01:16:43;101752.28;;;13.54;100.00
59859;BME280;45734;53.648;9.566;2022-07-04T01:21:44;101757.63;;;13.54;100.00
59859;BME280;45734;53.648;9.566;2022-07-04T01:26:44;101763.13;;;13.52;100.00
59859;BME280;45734;53.648;9.566;2022-07-04T01:31:44;101759.78;;;13.50;100.00
59859;BME280;45734;53.648;9.566;2022-07-04T01:36:45;101766.41;;;13.46;100.00
59859;BME280;45734;53.648;9.566;2022-07-04T01:41:45;101768.75;;;13.41;100.00
59859;BME280;45734;53.648;9.566;2022-07-04T01:46:45;101764.84;;;13.35;100.00
59859;BME280;45734;53.648;9.566;2022-07-04T01:51:49;101766.97;;;13.32;100.00
59859;BME280;45734;53.648;9.566;2022-07-04T01:56:50;101773.63;;;13.28;100.00
59859;BME280;45734;53.648;9.566;2022-07-04T02:01:50;101772.25;;;13.24;100.00
59859;BME280;45734;53.648;9.566;2022-07-04T02:06:50;101769.00;;;13.20;100.00
59859;BME280;45734;53.648;9.566;2022-07-04T02:11:51;101773.69;;;13.18;100.00
59859;BME280;45734;53.648;9.566;2022-07-04T02:17:11;101783.81;;;13.14;100.00
59859;BME280;45734;53.648;9.566;2022-07-04T02:22:11;101769.78;;;13.12;100.00
59859;BME280;45734;53.648;9.566;2022-07-04T02:27:12;101779.78;;;13.10;100.00
59859;BME280;45734;53.648;9.566;2022-07-04T02:32:12;101774.88;;;13.06;100.00
59859;BME280;45734;53.648;9.566;2022-07-04T02:37:12;101780.09;;;13.07;100.00
59859;BME280;45734;53.648;9.566;2022-07-04T02:42:13;101770.53;;;13.05;100.00
59859;BME280;45734;53.648;9.566;2022-07-04T02:47:14;101784.91;;;13.04;100.00
59859;BME280;45734;53.648;9.566;2022-07-04T02:52:15;101780.84;;;13.00;100.00
59859;BME280;45734;53.648;9.566;2022-07-04T02:57:15;101777.81;;;12.95;100.00
59859;BME280;45734;53.648;9.566;2022-07-04T03:02:16;101782.28;;;12.94;100.00
59859;BME280;45734;53.648;9.566;2022-07-04T03:07:16;101788.19;;;12.98;100.00
59859;BME280;45734;53.648;9.566;2022-07-04T03:12:16;101787.44;;;13.05;100.00
59859;BME280;45734;53.648;9.566;2022-07-04T03:17:17;101788.06;;;13.35;100.00
59859;BME280;45734;53.648;9.566;2022-07-04T03:22:17;101789.13;;;13.86;100.00
59859;BME280;45734;53.648;9.566;2022-07-04T03:27:18;101799.88;;;14.46;100.00
59859;BME280;45734;53.648;9.566;2022-07-04T03:32:18;101815.69;;;15.16;100.00
59859;BME280;45734;53.648;9.566;2022-07-04T03:37:18;101809.31;;;15.99;100.00
59859;BME280;45734;53.648;9.566;2022-07-04T03:42:19;101815.44;;;16.88;100.00
59859;BME280;45734;53.648;9.566;2022-07-04T03:47:19;101810.59;;;17.76;100.00
59859;BME280;45734;53.648;9.566;2022-07-04T03:52:19;101819.59;;;18.80;100.00
59859;BME280;45734;53.648;9.566;2022-07-04T03:57:20;101825.97;;;19.73;100.00
59859;BME280;45734;53.648;9.566;2022-07-04T04:02:20;101831.50;;;20.56;100.00
59859;BME280;45734;53.648;9.566;2022-07-04T04:07:20;101826.56;;;20.60;100.00
59859;BME280;45734;53.648;9.566;2022-07-04T04:12:21;101826.91;;;21.11;100.00
59859;BME280;45734;53.648;9.566;2022-07-04T04:17:21;101827.19;;;21.96;96.53
59859;BME280;45734;53.648;9.566;2022-07-04T04:22:22;101822.50;;;22.56;89.31
59859;BME280;45734;53.648;9.566;2022-07-04T04:27:22;101832.44;;;23.21;83.65
59859;BME280;45734;53.648;9.566;2022-07-04T04:32:22;101829.59;;;23.72;81.05
59859;BME280;45734;53.648;9.566;2022-07-04T04:37:22;101844.56;;;24.50;79.15
59859;BME280;45734;53.648;9.566;2022-07-04T04:42:23;101848.19;;;25.11;76.00
59859;BME280;45734;53.648;9.566;2022-07-04T04:47:23;101862.56;;;25.48;70.97
59859;BME280;45734;53.648;9.566;2022-07-04T04:52:24;101871.22;;;25.57;69.74
59859;BME280;45734;53.648;9.566;2022-07-04T04:57:24;101872.09;;;25.81;69.63
59859;BME280;45734;53.648;9.566;2022-07-04T05:02:24;101878.53;;;26.22;68.68
59859;BME280;45734;53.648;9.566;2022-07-04T05:07:25;101876.13;;;26.49;67.32
59859;BME280;45734;53.648;9.566;2022-07-04T05:12:26;101875.13;;;26.79;66.21
59859;BME280;45734;53.648;9.566;2022-07-04T05:17:26;101875.41;;;27.18;64.31
59859;BME280;45734;53.648;9.566;2022-07-04T05:22:26;101878.19;;;27.51;61.83
59859;BME280;45734;53.648;9.566;2022-07-04T05:27:27;101883.88;;;27.79;62.99
59859;BME280;45734;53.648;9.566;2022-07-04T05:32:27;101879.97;;;28.08;62.01
59859;BME280;45734;53.648;9.566;2022-07-04T05:37:28;101883.19;;;28.05;58.34
59859;BME280;45734;53.648;9.566;2022-07-04T05:42:28;101878.94;;;28.31;56.87
59859;BME280;45734;53.648;9.566;2022-07-04T05:47:29;101873.03;;;28.39;56.11
59859;BME280;45734;53.648;9.566;2022-07-04T05:52:29;101871.59;;;28.54;55.46
59859;BME280;45734;53.648;9.566;2022-07-04T05:57:29;101868.41;;;28.84;55.12
59859;BME280;45734;53.648;9.566;2022-07-04T06:02:29;101873.97;;;29.16;52.57
59859;BME280;45734;53.648;9.566;2022-07-04T06:07:30;101867.25;;;29.29;53.15
59859;BME280;45734;53.648;9.566;2022-07-04T06:12:30;101869.44;;;29.59;50.56
59859;BME280;45734;53.648;9.566;2022-07-04T06:17:30;101875.13;;;29.80;50.44
59859;BME280;45734;53.648;9.566;2022-07-04T06:22:48;101880.97;;;29.61;51.44
59859;BME280;45734;53.648;9.566;2022-07-04T06:27:50;101886.31;;;29.73;50.77
59859;BME280;45734;53.648;9.566;2022-07-04T06:32:55;101884.75;;;29.50;50.55
59859;BME280;45734;53.648;9.566;2022-07-04T06:37:56;101877.28;;;29.45;49.10
59859;BME280;45734;53.648;9.566;2022-07-04T06:42:56;101878.22;;;29.56;50.42
59859;BME280;45734;53.648;9.566;2022-07-04T06:47:57;101880.41;;;29.86;50.14
59859;BME280;45734;53.648;9.566;2022-07-04T06:53:02;101880.16;;;29.61;50.18
59859;BME280;45734;53.648;9.566;2022-07-04T06:58:04;101882.91;;;28.84;50.08
59859;BME280;45734;53.648;9.566;2022-07-04T07:03:05;101879.31;;;28.57;50.91
59859;BME280;45734;53.648;9.566;2022-07-04T07:08:05;101866.44;;;28.40;50.88
59859;BME280;45734;53.648;9.566;2022-07-04T07:13:05;101868.16;;;28.63;51.86
59859;BME280;45734;53.648;9.566;2022-07-04T07:18:06;101863.09;;;28.55;51.10
59859;BME280;45734;53.648;9.566;2022-07-04T07:23:06;101868.97;;;28.86;51.17
59859;BME280;45734;53.648;9.566;2022-07-04T07:28:06;101866.69;;;28.78;51.64
59859;BME280;45734;53.648;9.566;2022-07-04T07:33:07;101869.69;;;27.98;51.20
59859;BME280;45734;53.648;9.566;2022-07-04T07:38:07;101866.56;;;27.90;52.68
59859;BME280;45734;53.648;9.566;2022-07-04T07:43:07;101877.84;;;27.48;52.63
59859;BME280;45734;53.648;9.566;2022-07-04T07:48:08;101860.06;;;27.05;51.01
59859;BME280;45734;53.648;9.566;2022-07-04T07:53:08;101875.94;;;26.27;52.16
59859;BME280;45734;53.648;9.566;2022-07-04T07:58:09;101869.03;;;26.36;53.97
59859;BME280;45734;53.648;9.566;2022-07-04T08:03:09;101874.38;;;26.55;56.70
59859;BME280;45734;53.648;9.566;2022-07-04T08:08:28;101875.22;;;27.70;54.43
59859;BME280;45734;53.648;9.566;2022-07-04T08:13:29;101872.03;;;27.90;50.09
59859;BME280;45734;53.648;9.566;2022-07-04T08:18:29;101872.34;;;27.93;51.98
59859;BME280;45734;53.648;9.566;2022-07-04T08:23:31;101870.22;;;27.33;52.46
59859;BME280;45734;53.648;9.566;2022-07-04T08:28:32;101876.91;;;27.14;52.32
59859;BME280;45734;53.648;9.566;2022-07-04T08:33:32;101883.25;;;27.60;54.33
59859;BME280;45734;53.648;9.566;2022-07-04T08:38:33;101877.09;;;26.67;52.71
59859;BME280;45734;53.648;9.566;2022-07-04T08:43:33;101885.44;;;26.36;54.04
59859;BME280;45734;53.648;9.566;2022-07-04T08:48:37;101874.47;;;25.78;57.86
59859;BME280;45734;53.648;9.566;2022-07-04T08:53:38;101870.22;;;26.52;54.38
59859;BME280;45734;53.648;9.566;2022-07-04T08:58:42;101867.38;;;26.47;57.21
59859;BME280;45734;53.648;9.566;2022-07-04T09:03:44;101874.38;;;25.96;54.46
59859;BME280;45734;53.648;9.566;2022-07-04T09:08:45;101865.19;;;25.67;57.33
59859;BME280;45734;53.648;9.566;2022-07-04T09:13:45;101864.75;;;26.52;57.07
59859;BME280;45734;53.648;9.566;2022-07-04T09:18:47;101863.00;;;26.86;55.05
59859;BME280;45734;53.648;9.566;2022-07-04T09:23:47;101859.50;;;27.03;55.28
59859;BME280;45734;53.648;9.566;2022-07-04T09:28:52;101866.31;;;27.29;53.52
59859;BME280;45734;53.648;9.566;2022-07-04T09:33:56;101867.13;;;27.29;50.38
59859;BME280;45734;53.648;9.566;2022-07-04T09:44:09;101855.53;;;26.82;51.07
59859;BME280;45734;53.648;9.566;2022-07-04T09:49:11;101852.91;;;26.00;52.72
59859;BME280;45734;53.648;9.566;2022-07-04T09:54:25;101855.34;;;25.66;56.57
59859;BME280;45734;53.648;9.566;2022-07-04T09:59:28;101852.16;;;25.81;58.09
59859;BME280;45734;53.648;9.566;2022-07-04T10:04:49;101852.66;;;26.25;56.40
59859;BME280;45734;53.648;9.566;2022-07-04T10:09:49;101851.78;;;25.65;54.29
59859;BME280;45734;53.648;9.566;2022-07-04T10:14:50;101851.38;;;26.15;59.36
59859;BME280;45734;53.648;9.566;2022-07-04T10:19:50;101856.19;;;27.01;55.81
59859;BME280;45734;53.648;9.566;2022-07-04T10:24:53;101844.53;;;27.05;54.36
59859;BME280;45734;53.648;9.566;2022-07-04T10:29:53;101837.91;;;26.37;53.21
59859;BME280;45734;53.648;9.566;2022-07-04T10:34:54;101841.16;;;25.03;54.55
59859;BME280;45734;53.648;9.566;2022-07-04T10:39:54;101857.69;;;24.35;59.29
59859;BME280;45734;53.648;9.566;2022-07-04T10:45:00;101844.66;;;24.44;59.79
59859;BME280;45734;53.648;9.566;2022-07-04T10:50:00;101839.19;;;24.44;58.74
59859;BME280;45734;53.648;9.566;2022-07-04T10:55:10;101832.91;;;24.00;59.53
59859;BME280;45734;53.648;9.566;2022-07-04T11:00:11;101844.81;;;23.80;59.42
59859;BME280;45734;53.648;9.566;2022-07-04T11:05:13;101842.75;;;23.44;61.63
59859;BME280;45734;53.648;9.566;2022-07-04T11:20:30;101841.34;;;23.66;63.21
59859;BME280;45734;53.648;9.566;2022-07-04T11:25:31;101828.59;;;23.92;61.09
59859;BME280;45734;53.648;9.566;2022-07-04T11:30:32;101827.16;;;24.70;63.91
59859;BME280;45734;53.648;9.566;2022-07-04T11:35:32;101811.16;;;25.34;62.28
59859;BME280;45734;53.648;9.566;2022-07-04T11:40:44;101819.28;;;25.52;55.35
59859;BME280;45734;53.648;9.566;2022-07-04T11:46:10;101804.97;;;25.92;57.77
59859;BME280;45734;53.648;9.566;2022-07-04T11:51:18;101800.97;;;26.35;56.71
59859;BME280;45734;53.648;9.566;2022-07-04T11:56:18;101789.59;;;26.78;57.00
59859;BME280;45734;53.648;9.566;2022-07-04T12:01:27;101781.16;;;26.80;54.35
59859;BME280;45734;53.648;9.566;2022-07-04T12:06:28;101782.53;;;26.66;51.79
59859;BME280;45734;53.648;9.566;2022-07-04T12:11:57;101780.41;;;26.44;50.62
59859;BME280;45734;53.648;9.566;2022-07-04T12:17:18;101770.41;;;25.86;54.79
59859;BME280;45734;53.648;9.566;2022-07-04T12:22:26;101768.59;;;25.44;55.74
59859;BME280;45734;53.648;9.566;2022-07-04T12:27:27;101763.97;;;24.91;55.87
59859;BME280;45734;53.648;9.566;2022-07-04T12:32:44;101760.34;;;24.67;58.56
59859;BME280;45734;53.648;9.566;2022-07-04T12:38:00;101763.31;;;24.47;59.07
59859;BME280;45734;53.648;9.566;2022-07-04T12:43:01;101762.47;;;24.10;57.03
59859;BME280;45734;53.648;9.566;2022-07-04T12:48:01;101768.69;;;23.73;61.26
59859;BME280;45734;53.648;9.566;2022-07-04T12:53:02;101760.69;;;23.79;61.68
59859;BME280;45734;53.648;9.566;2022-07-04T12:58:03;101767.84;;;24.35;64.06
59859;BME280;45734;53.648;9.566;2022-07-04T13:03:04;101768.34;;;24.92;60.69
59859;BME280;45734;53.648;9.566;2022-07-04T13:08:04;101770.16;;;24.31;61.65
59859;BME280;45734;53.648;9.566;2022-07-04T13:13:06;101760.88;;;24.21;66.01
59859;BME280;45734;53.648;9.566;2022-07-04T13:18:06;101768.50;;;24.67;62.48
59859;BME280;45734;53.648;9.566;2022-07-04T13:23:07;101780.09;;;25.04;60.51
59859;BME280;45734;53.648;9.566;2022-07-04T13:28:07;101777.44;;;24.86;57.58
59859;BME280;45734;53.648;9.566;2022-07-04T13:33:07;101778.22;;;24.26;61.19
59859;BME280;45734;53.648;9.566;2022-07-04T13:38:08;101787.59;;;23.62;60.66
59859;BME280;45734;53.648;9.566;2022-07-04T13:43:08;101783.31;;;23.22;64.64
59859;BME280;45734;53.648;9.566;2022-07-04T13:48:11;101780.78;;;23.27;62.47
59859;BME280;45734;53.648;9.566;2022-07-04T13:53:11;101783.09;;;23.49;62.27
59859;BME280;45734;53.648;9.566;2022-07-04T13:58:12;101781.41;;;23.55;60.69
59859;BME280;45734;53.648;9.566;2022-07-04T14:03:13;101782.00;;;23.82;60.92
59859;BME280;45734;53.648;9.566;2022-07-04T14:08:13;101775.19;;;23.72;60.62
59859;BME280;45734;53.648;9.566;2022-07-04T14:13:14;101778.94;;;23.46;59.88
59859;BME280;45734;53.648;9.566;2022-07-04T14:18:14;101778.28;;;23.76;62.54
59859;BME280;45734;53.648;9.566;2022-07-04T14:23:14;101769.63;;;24.23;62.10
59859;BME280;45734;53.648;9.566;2022-07-04T14:28:36;101766.72;;;24.43;60.77
59859;BME280;45734;53.648;9.566;2022-07-04T14:33:36;101769.44;;;24.24;58.39
59859;BME280;45734;53.648;9.566;2022-07-04T14:38:38;101779.69;;;24.22;56.68
59859;BME280;45734;53.648;9.566;2022-07-04T14:43:40;101784.41;;;23.15;66.74
59859;BME280;45734;53.648;9.566;2022-07-04T14:48:40;101785.47;;;22.24;69.08
59859;BME280;45734;53.648;9.566;2022-07-04T14:53:41;101778.84;;;21.80;72.19
59859;BME280;45734;53.648;9.566;2022-07-04T14:58:41;101778.38;;;22.03;74.33
59859;BME280;45734;53.648;9.566;2022-07-04T15:03:41;101775.78;;;22.41;74.48
59859;BME280;45734;53.648;9.566;2022-07-04T15:08:42;101770.16;;;22.36;70.89
59859;BME280;45734;53.648;9.566;2022-07-04T15:13:42;101775.06;;;21.94;73.14
59859;BME280;45734;53.648;9.566;2022-07-04T15:18:42;101781.09;;;22.03;72.75
59859;BME280;45734;53.648;9.566;2022-07-04T15:23:44;101776.50;;;21.90;71.20
59859;BME280;45734;53.648;9.566;2022-07-04T15:29:03;101781.72;;;21.32;72.85
59859;BME280;45734;53.648;9.566;2022-07-04T15:34:03;101781.72;;;21.32;73.44
59859;BME280;45734;53.648;9.566;2022-07-04T15:39:15;101797.13;;;21.05;73.43
59859;BME280;45734;53.648;9.566;2022-07-04T15:44:16;101798.84;;;20.64;76.56
59859;BME280;45734;53.648;9.566;2022-07-04T15:49:16;101790.00;;;20.97;77.36
59859;BME280;45734;53.648;9.566;2022-07-04T15:54:17;101804.88;;;21.28;74.53
59859;BME280;45734;53.648;9.566;2022-07-04T15:59:17;101798.44;;;21.35;73.38
59859;BME280;45734;53.648;9.566;2022-07-04T16:04:18;101812.59;;;21.31;76.83
59859;BME280;45734;53.648;9.566;2022-07-04T16:09:18;101812.63;;;20.69;75.55
59859;BME280;45734;53.648;9.566;2022-07-04T16:14:19;101803.94;;;20.39;76.59
59859;BME280;45734;53.648;9.566;2022-07-04T16:19:19;101808.88;;;20.29;74.00
59859;BME280;45734;53.648;9.566;2022-07-04T16:24:19;101819.50;;;20.72;76.21
59859;BME280;45734;53.648;9.566;2022-07-04T16:29:20;101808.44;;;20.67;74.46
59859;BME280;45734;53.648;9.566;2022-07-04T16:34:20;101817.81;;;20.29;73.67
59859;BME280;45734;53.648;9.566;2022-07-04T16:39:20;101823.41;;;19.93;76.07
59859;BME280;45734;53.648;9.566;2022-07-04T16:44:23;101821.34;;;19.67;77.09
59859;BME280;45734;53.648;9.566;2022-07-04T16:49:23;101823.00;;;19.47;78.08
59859;BME280;45734;53.648;9.566;2022-07-04T16:54:24;101826.97;;;19.51;79.07
59859;BME280;45734;53.648;9.566;2022-07-04T16:59:24;101831.63;;;19.78;79.81
59859;BME280;45734;53.648;9.566;2022-07-04T17:04:25;101837.91;;;19.85;77.20
59859;BME280;45734;53.648;9.566;2022-07-04T17:09:25;101839.44;;;19.52;80.00
59859;BME280;45734;53.648;9.566;2022-07-04T17:14:26;101838.34;;;19.25;80.43
59859;BME280;45734;53.648;9.566;2022-07-04T17:19:26;101829.84;;;19.06;80.60
59859;BME280;45734;53.648;9.566;2022-07-04T17:24:26;101842.06;;;18.72;80.61
59859;BME280;45734;53.648;9.566;2022-07-04T17:29:27;101845.34;;;18.68;82.36
59859;BME280;45734;53.648;9.566;2022-07-04T17:34:28;101843.69;;;18.52;81.72
59859;BME280;45734;53.648;9.566;2022-07-04T17:39:28;101836.53;;;18.44;82.70
59859;BME280;45734;53.648;9.566;2022-07-04T17:44:28;101832.06;;;18.51;81.54
59859;BME280;45734;53.648;9.566;2022-07-04T17:49:29;101847.13;;;18.61;81.20
59859;BME280;45734;53.648;9.566;2022-07-04T17:54:29;101855.78;;;18.56;80.55
59859;BME280;45734;53.648;9.566;2022-07-04T17:59:29;101848.16;;;18.45;80.58
59859;BME280;45734;53.648;9.566;2022-07-04T18:04:30;101843.88;;;18.50;81.43
59859;BME280;45734;53.648;9.566;2022-07-04T18:09:31;101844.41;;;18.61;79.97
59859;BME280;45734;53.648;9.566;2022-07-04T18:14:31;101845.91;;;18.48;78.06
59859;BME280;45734;53.648;9.566;2022-07-04T18:19:31;101853.94;;;18.42;78.92
59859;BME280;45734;53.648;9.566;2022-07-04T18:24:32;101854.47;;;18.22;80.29
59859;BME280;45734;53.648;9.566;2022-07-04T18:29:32;101855.00;;;18.18;80.23
59859;BME280;45734;53.648;9.566;2022-07-04T18:34:33;101851.38;;;18.10;81.64
59859;BME280;45734;53.648;9.566;2022-07-04T18:39:33;101857.06;;;18.01;82.62
59859;BME280;45734;53.648;9.566;2022-07-04T18:44:33;101860.28;;;17.96;80.71
59859;BME280;45734;53.648;9.566;2022-07-04T18:49:35;101861.03;;;17.90;81.50
59859;BME280;45734;53.648;9.566;2022-07-04T18:54:37;101869.47;;;17.87;79.09
59859;BME280;45734;53.648;9.566;2022-07-04T18:59:38;101862.59;;;17.84;80.25
59859;BME280;45734;53.648;9.566;2022-07-04T19:04:39;101872.47;;;17.69;81.48
59859;BME280;45734;53.648;9.566;2022-07-04T19:09:39;101873.97;;;17.49;81.83
59859;BME280;45734;53.648;9.566;2022-07-04T19:14:39;101871.06;;;17.27;82.18
59859;BME280;45734;53.648;9.566;2022-07-04T19:19:40;101877.75;;;17.08;83.85
59859;BME280;45734;53.648;9.566;2022-07-04T19:24:40;101884.88;;;16.93;84.90
59859;BME280;45734;53.648;9.566;2022-07-04T19:29:41;101889.13;;;16.79;84.66
59859;BME280;45734;53.648;9.566;2022-07-04T19:34:42;101891.69;;;16.64;85.75
59859;BME280;45734;53.648;9.566;2022-07-04T19:39:43;101892.91;;;16.45;87.90
59859;BME280;45734;53.648;9.566;2022-07-04T19:44:46;101888.75;;;16.26;87.80
59859;BME280;45734;53.648;9.566;2022-07-04T19:49:48;101890.44;;;16.11;86.95
59859;BME280;45734;53.648;9.566;2022-07-04T19:54:49;101893.81;;;15.97;87.61
59859;BME280;45734;53.648;9.566;2022-07-04T19:59:49;101905.91;;;15.84;88.77
59859;BME280;45734;53.648;9.566;2022-07-04T20:04:50;101902.19;;;15.69;90.41
59859;BME280;45734;53.648;9.566;2022-07-04T20:09:51;101903.50;;;15.57;90.68
59859;BME280;45734;53.648;9.566;2022-07-04T20:14:51;101901.28;;;15.44;91.27
59859;BME280;45734;53.648;9.566;2022-07-04T20:19:52;101902.59;;;15.32;92.69
59859;BME280;45734;53.648;9.566;2022-07-04T20:24:53;101914.19;;;15.24;93.80
59859;BME280;45734;53.648;9.566;2022-07-04T20:29:56;101915.81;;;15.17;94.93
59859;BME280;45734;53.648;9.566;2022-07-04T20:35:09;101913.94;;;15.09;96.65
59859;BME280;45734;53.648;9.566;2022-07-04T20:40:11;101911.91;;;15.03;97.41
59859;BME280;45734;53.648;9.566;2022-07-04T20:45:11;101915.41;;;14.96;98.21
59859;BME280;45734;53.648;9.566;2022-07-04T20:50:12;101917.06;;;14.88;98.97
59859;BME280;45734;53.648;9.566;2022-07-04T20:55:12;101919.38;;;14.83;100.00
59859;BME280;45734;53.648;9.566;2022-07-04T21:00:13;101909.13;;;14.79;100.00
59859;BME280;45734;53.648;9.566;2022-07-04T21:05:15;101919.50;;;14.74;100.00
59859;BME280;45734;53.648;9.566;2022-07-04T21:10:16;101917.31;;;14.69;100.00
59859;BME280;45734;53.648;9.566;2022-07-04T21:15:16;101909.56;;;14.66;100.00
59859;BME280;45734;53.648;9.566;2022-07-04T21:20:17;101924.97;;;14.64;100.00
59859;BME280;45734;53.648;9.566;2022-07-04T21:25:17;101922.94;;;14.58;100.00
59859;BME280;45734;53.648;9.566;2022-07-04T21:30:18;101933.97;;;14.55;100.00
59859;BME280;45734;53.648;9.566;2022-07-04T21:35:18;101935.44;;;14.49;100.00
59859;BME280;45734;53.648;9.566;2022-07-04T21:40:19;101937.72;;;14.44;100.00
59859;BME280;45734;53.648;9.566;2022-07-04T21:45:19;101937.53;;;14.37;100.00
59859;BME280;45734;53.648;9.566;2022-07-04T21:50:20;101937.84;;;14.34;100.00
59859;BME280;45734;53.648;9.566;2022-07-04T21:55:20;101938.28;;;14.30;100.00
59859;BME280;45734;53.648;9.566;2022-07-04T22:00:20;101939.63;;;14.25;100.00
59859;BME280;45734;53.648;9.566;2022-07-04T22:05:21;101943.91;;;14.18;100.00
59859;BME280;45734;53.648;9.566;2022-07-04T22:10:21;101935.59;;;14.03;100.00
59859;BME280;45734;53.648;9.566;2022-07-04T22:15:22;101943.00;;;13.92;100.00
59859;BME280;45734;53.648;9.566;2022-07-04T22:20:24;101943.03;;;13.74;100.00
59859;BME280;45734;53.648;9.566;2022-07-04T22:25:24;101944.56;;;13.58;100.00
59859;BME280;45734;53.648;9.566;2022-07-04T22:30:24;101938.84;;;13.44;100.00
59859;BME280;45734;53.648;9.566;2022-07-04T22:35:25;101948.47;;;13.36;100.00
59859;BME280;45734;53.648;9.566;2022-07-04T22:40:25;101943.97;;;13.37;100.00
59859;BME280;45734;53.648;9.566;2022-07-04T22:45:26;101935.28;;;13.53;100.00
59859;BME280;45734;53.648;9.566;2022-07-04T22:50:27;101932.22;;;13.66;100.00
59859;BME280;45734;53.648;9.566;2022-07-04T22:55:28;101936.53;;;13.76;100.00
59859;BME280;45734;53.648;9.566;2022-07-04T23:00:28;101936.03;;;13.81;100.00
59859;BME280;45734;53.648;9.566;2022-07-04T23:05:28;101939.28;;;13.85;100.00
59859;BME280;45734;53.648;9.566;2022-07-04T23:10:29;101932.91;;;13.86;100.00
59859;BME280;45734;53.648;9.566;2022-07-04T23:15:29;101928.41;;;13.86;100.00
59859;BME280;45734;53.648;9.566;2022-07-04T23:20:30;101930.56;;;13.82;100.00
59859;BME280;45734;53.648;9.566;2022-07-04T23:25:30;101935.00;;;13.74;100.00
59859;BME280;45734;53.648;9.566;2022-07-04T23:30:31;101933.06;;;13.66;100.00
59859;BME280;45734;53.648;9.566;2022-07-04T23:35:31;101929.16;;;13.61;100.00
59859;BME280;45734;53.648;9.566;2022-07-04T23:40:31;101932.13;;;13.57;100.00
59859;BME280;45734;53.648;9.566;2022-07-04T23:45:32;101943.47;;;13.51;100.00
59859;BME280;45734;53.648;9.566;2022-07-04T23:50:33;101938.00;;;13.43;100.00
59859;BME280;45734;53.648;9.566;2022-07-04T23:55:33;101937.25;;;13.33;100.00
